sensor_id;sensor_type;location;lat;lon;timestamp;P1;durP1;ratioP1;P2;durP2;ratioP2
56860;SDS011;42744;51.094;3.490;2024-03-02T00:00:18;3.70;;;0.83;;
56860;SDS011;42744;51.094;3.490;2024-03-02T00:02:47;2.70;;;0.90;;
56860;SDS011;42744;51.094;3.490;2024-03-02T00:05:15;4.20;;;0.87;;
56860;SDS011;42744;51.094;3.490;2024-03-02T00:07:42;2.40;;;0.67;;
56860;SDS011;42744;51.094;3.490;2024-03-02T00:10:10;5.43;;;1.13;;
56860;SDS011;42744;51.094;3.490;2024-03-02T00:12:40;4.03;;;0.87;;
56860;SDS011;42744;51.094;3.490;2024-03-02T00:15:16;3.43;;;1.20;;
56860;SDS011;42744;51.094;3.490;2024-03-02T00:18:04;4.37;;;1.23;;
56860;SDS011;42744;51.094;3.490;2024-03-02T00:20:30;3.23;;;0.90;;
56860;SDS011;42744;51.094;3.490;2024-03-02T00:23:00;2.63;;;0.70;;
56860;SDS011;42744;51.094;3.490;2024-03-02T00:31:08;2.70;;;0.87;;
56860;SDS011;42744;51.094;3.490;2024-03-02T00:33:39;2.37;;;0.87;;
56860;SDS011;42744;51.094;3.490;2024-03-02T00:36:07;2.43;;;0.80;;
56860;SDS011;42744;51.094;3.490;2024-03-02T00:38:34;3.37;;;1.00;;
56860;SDS011;42744;51.094;3.490;2024-03-02T00:41:08;2.27;;;0.70;;
56860;SDS011;42744;51.094;3.490;2024-03-02T00:46:44;2.33;;;1.20;;
56860;SDS011;42744;51.094;3.490;2024-03-02T00:51:36;3.63;;;0.93;;
56860;SDS011;42744;51.094;3.490;2024-03-02T00:54:07;1.43;;;0.80;;
56860;SDS011;42744;51.094;3.490;2024-03-02T00:56:35;2.67;;;1.00;;
56860;SDS011;42744;51.094;3.490;2024-03-02T00:59:01;3.47;;;0.80;;
56860;SDS011;42744;51.094;3.490;2024-03-02T01:01:28;2.00;;;0.73;;
56860;SDS011;42744;51.094;3.490;2024-03-02T01:03:53;1.87;;;1.00;;
56860;SDS011;42744;51.094;3.490;2024-03-02T01:06:19;2.80;;;0.80;;
56860;SDS011;42744;51.094;3.490;2024-03-02T01:08:45;1.60;;;0.57;;
56860;SDS011;42744;51.094;3.490;2024-03-02T01:11:16;1.07;;;0.50;;
56860;SDS011;42744;51.094;3.490;2024-03-02T01:13:43;0.93;;;0.60;;
56860;SDS011;42744;51.094;3.490;2024-03-02T01:16:10;2.87;;;0.67;;
56860;SDS011;42744;51.094;3.490;2024-03-02T01:18:36;1.20;;;0.73;;
56860;SDS011;42744;51.094;3.490;2024-03-02T01:21:02;1.73;;;0.73;;
56860;SDS011;42744;51.094;3.490;2024-03-02T01:23:28;1.67;;;0.87;;
56860;SDS011;42744;51.094;3.490;2024-03-02T01:25:54;1.30;;;0.63;;
56860;SDS011;42744;51.094;3.490;2024-03-02T01:28:20;1.60;;;0.70;;
56860;SDS011;42744;51.094;3.490;2024-03-02T01:30:47;2.53;;;0.80;;
56860;SDS011;42744;51.094;3.490;2024-03-02T01:33:13;0.83;;;0.60;;
56860;SDS011;42744;51.094;3.490;2024-03-02T01:35:39;0.87;;;0.47;;
56860;SDS011;42744;51.094;3.490;2024-03-02T01:38:05;1.10;;;0.80;;
56860;SDS011;42744;51.094;3.490;2024-03-02T01:40:34;2.83;;;0.97;;
56860;SDS011;42744;51.094;3.490;2024-03-02T01:43:01;2.37;;;0.80;;
56860;SDS011;42744;51.094;3.490;2024-03-02T01:45:28;2.30;;;0.90;;
56860;SDS011;42744;51.094;3.490;2024-03-02T01:47:54;3.17;;;0.80;;
56860;SDS011;42744;51.094;3.490;2024-03-02T01:52:54;2.10;;;0.70;;
56860;SDS011;42744;51.094;3.490;2024-03-02T01:55:21;0.93;;;0.77;;
56860;SDS011;42744;51.094;3.490;2024-03-02T01:57:47;2.13;;;0.93;;
56860;SDS011;42744;51.094;3.490;2024-03-02T02:00:14;6.50;;;1.30;;
56860;SDS011;42744;51.094;3.490;2024-03-02T02:02:41;2.30;;;1.07;;
56860;SDS011;42744;51.094;3.490;2024-03-02T02:05:07;3.53;;;1.00;;
56860;SDS011;42744;51.094;3.490;2024-03-02T02:07:33;3.30;;;1.30;;
56860;SDS011;42744;51.094;3.490;2024-03-02T02:10:00;2.70;;;1.03;;
56860;SDS011;42744;51.094;3.490;2024-03-02T02:12:26;2.87;;;1.10;;
56860;SDS011;42744;51.094;3.490;2024-03-02T02:14:52;2.97;;;1.60;;
56860;SDS011;42744;51.094;3.490;2024-03-02T02:17:18;5.17;;;1.37;;
56860;SDS011;42744;51.094;3.490;2024-03-02T02:19:45;2.73;;;1.40;;
56860;SDS011;42744;51.094;3.490;2024-03-02T02:22:10;3.23;;;1.60;;
56860;SDS011;42744;51.094;3.490;2024-03-02T02:24:40;6.57;;;1.83;;
56860;SDS011;42744;51.094;3.490;2024-03-02T02:27:07;8.47;;;2.20;;
56860;SDS011;42744;51.094;3.490;2024-03-02T02:29:33;5.20;;;1.87;;
56860;SDS011;42744;51.094;3.490;2024-03-02T02:31:59;5.53;;;2.20;;
56860;SDS011;42744;51.094;3.490;2024-03-02T02:34:25;5.27;;;2.10;;
56860;SDS011;42744;51.094;3.490;2024-03-02T02:36:51;4.93;;;2.30;;
56860;SDS011;42744;51.094;3.490;2024-03-02T02:39:19;3.93;;;2.40;;
56860;SDS011;42744;51.094;3.490;2024-03-02T02:41:47;4.83;;;2.33;;
56860;SDS011;42744;51.094;3.490;2024-03-02T02:44:13;9.03;;;2.73;;
56860;SDS011;42744;51.094;3.490;2024-03-02T02:46:40;5.70;;;2.43;;
56860;SDS011;42744;51.094;3.490;2024-03-02T02:49:06;7.77;;;2.67;;
56860;SDS011;42744;51.094;3.490;2024-03-02T02:51:32;3.97;;;2.60;;
56860;SDS011;42744;51.094;3.490;2024-03-02T02:53:59;6.70;;;3.00;;
56860;SDS011;42744;51.094;3.490;2024-03-02T02:56:24;5.90;;;3.00;;
56860;SDS011;42744;51.094;3.490;2024-03-02T02:58:50;5.30;;;2.40;;
56860;SDS011;42744;51.094;3.490;2024-03-02T03:01:16;5.90;;;2.33;;
56860;SDS011;42744;51.094;3.490;2024-03-02T03:03:43;7.37;;;2.83;;
56860;SDS011;42744;51.094;3.490;2024-03-02T03:06:10;6.27;;;2.90;;
56860;SDS011;42744;51.094;3.490;2024-03-02T03:08:36;4.77;;;2.40;;
56860;SDS011;42744;51.094;3.490;2024-03-02T03:11:02;9.23;;;2.43;;
56860;SDS011;42744;51.094;3.490;2024-03-02T03:13:28;5.30;;;2.40;;
56860;SDS011;42744;51.094;3.490;2024-03-02T03:15:54;5.33;;;2.50;;
56860;SDS011;42744;51.094;3.490;2024-03-02T03:18:20;6.07;;;2.67;;
56860;SDS011;42744;51.094;3.490;2024-03-02T03:20:46;5.90;;;2.30;;
56860;SDS011;42744;51.094;3.490;2024-03-02T03:23:18;6.47;;;2.30;;
56860;SDS011;42744;51.094;3.490;2024-03-02T03:25:44;3.60;;;2.50;;
56860;SDS011;42744;51.094;3.490;2024-03-02T03:28:10;5.57;;;2.47;;
56860;SDS011;42744;51.094;3.490;2024-03-02T03:30:43;4.43;;;2.17;;
56860;SDS011;42744;51.094;3.490;2024-03-02T03:33:11;9.07;;;2.10;;
56860;SDS011;42744;51.094;3.490;2024-03-02T03:35:37;6.27;;;2.13;;
56860;SDS011;42744;51.094;3.490;2024-03-02T03:38:03;4.77;;;1.87;;
56860;SDS011;42744;51.094;3.490;2024-03-02T03:40:32;4.27;;;2.17;;
56860;SDS011;42744;51.094;3.490;2024-03-02T03:42:58;6.90;;;2.20;;
56860;SDS011;42744;51.094;3.490;2024-03-02T03:45:25;4.07;;;2.23;;
56860;SDS011;42744;51.094;3.490;2024-03-02T03:47:52;5.67;;;1.93;;
56860;SDS011;42744;51.094;3.490;2024-03-02T03:50:18;3.90;;;1.80;;
56860;SDS011;42744;51.094;3.490;2024-03-02T03:52:45;6.03;;;1.60;;
56860;SDS011;42744;51.094;3.490;2024-03-02T03:55:11;4.57;;;1.80;;
56860;SDS011;42744;51.094;3.490;2024-03-02T03:57:37;6.00;;;1.70;;
56860;SDS011;42744;51.094;3.490;2024-03-02T04:00:03;5.50;;;1.67;;
56860;SDS011;42744;51.094;3.490;2024-03-02T04:02:37;5.20;;;2.07;;
56860;SDS011;42744;51.094;3.490;2024-03-02T04:05:04;3.27;;;1.50;;
56860;SDS011;42744;51.094;3.490;2024-03-02T04:07:34;3.10;;;1.53;;
56860;SDS011;42744;51.094;3.490;2024-03-02T04:10:06;5.63;;;1.53;;
56860;SDS011;42744;51.094;3.490;2024-03-02T04:12:34;7.33;;;2.03;;
56860;SDS011;42744;51.094;3.490;2024-03-02T04:15:02;5.27;;;1.37;;
56860;SDS011;42744;51.094;3.490;2024-03-02T04:17:32;5.53;;;1.70;;
56860;SDS011;42744;51.094;3.490;2024-03-02T04:19:59;3.50;;;1.40;;
56860;SDS011;42744;51.094;3.490;2024-03-02T04:22:26;5.87;;;1.70;;
56860;SDS011;42744;51.094;3.490;2024-03-02T04:24:52;5.50;;;1.47;;
56860;SDS011;42744;51.094;3.490;2024-03-02T04:27:19;6.00;;;1.67;;
56860;SDS011;42744;51.094;3.490;2024-03-02T04:29:45;5.87;;;1.57;;
56860;SDS011;42744;51.094;3.490;2024-03-02T04:32:11;4.50;;;1.43;;
56860;SDS011;42744;51.094;3.490;2024-03-02T04:34:37;10.37;;;1.60;;
56860;SDS011;42744;51.094;3.490;2024-03-02T04:37:03;5.67;;;1.30;;
56860;SDS011;42744;51.094;3.490;2024-03-02T04:39:29;6.43;;;1.47;;
56860;SDS011;42744;51.094;3.490;2024-03-02T04:41:55;6.83;;;1.70;;
56860;SDS011;42744;51.094;3.490;2024-03-02T04:44:21;4.87;;;1.60;;
56860;SDS011;42744;51.094;3.490;2024-03-02T04:46:47;6.37;;;1.30;;
56860;SDS011;42744;51.094;3.490;2024-03-02T04:49:13;5.87;;;2.13;;
56860;SDS011;42744;51.094;3.490;2024-03-02T04:51:38;4.87;;;1.67;;
56860;SDS011;42744;51.094;3.490;2024-03-02T04:54:04;6.53;;;1.63;;
56860;SDS011;42744;51.094;3.490;2024-03-02T04:56:30;5.77;;;1.97;;
56860;SDS011;42744;51.094;3.490;2024-03-02T04:58:56;6.87;;;1.73;;
56860;SDS011;42744;51.094;3.490;2024-03-02T05:01:22;5.10;;;1.67;;
56860;SDS011;42744;51.094;3.490;2024-03-02T05:03:48;6.27;;;1.73;;
56860;SDS011;42744;51.094;3.490;2024-03-02T05:06:14;7.87;;;1.60;;
56860;SDS011;42744;51.094;3.490;2024-03-02T05:08:40;4.00;;;1.60;;
56860;SDS011;42744;51.094;3.490;2024-03-02T05:11:06;12.10;;;2.07;;
56860;SDS011;42744;51.094;3.490;2024-03-02T05:13:51;6.17;;;1.60;;
56860;SDS011;42744;51.094;3.490;2024-03-02T05:16:17;5.93;;;1.60;;
56860;SDS011;42744;51.094;3.490;2024-03-02T05:18:43;3.47;;;1.33;;
56860;SDS011;42744;51.094;3.490;2024-03-02T05:21:09;9.00;;;1.40;;
56860;SDS011;42744;51.094;3.490;2024-03-02T05:23:35;5.37;;;1.37;;
56860;SDS011;42744;51.094;3.490;2024-03-02T05:26:00;5.00;;;1.73;;
56860;SDS011;42744;51.094;3.490;2024-03-02T05:28:27;7.63;;;1.70;;
56860;SDS011;42744;51.094;3.490;2024-03-02T05:30:54;8.30;;;1.30;;
56860;SDS011;42744;51.094;3.490;2024-03-02T05:33:20;8.63;;;2.70;;
56860;SDS011;42744;51.094;3.490;2024-03-02T05:35:48;8.73;;;1.77;;
56860;SDS011;42744;51.094;3.490;2024-03-02T05:38:15;4.40;;;1.40;;
56860;SDS011;42744;51.094;3.490;2024-03-02T05:40:41;3.60;;;1.50;;
56860;SDS011;42744;51.094;3.490;2024-03-02T05:43:07;5.30;;;1.80;;
56860;SDS011;42744;51.094;3.490;2024-03-02T05:45:33;6.77;;;2.57;;
56860;SDS011;42744;51.094;3.490;2024-03-02T05:47:59;5.87;;;1.80;;
56860;SDS011;42744;51.094;3.490;2024-03-02T05:50:25;4.60;;;1.40;;
56860;SDS011;42744;51.094;3.490;2024-03-02T05:52:51;6.20;;;1.30;;
56860;SDS011;42744;51.094;3.490;2024-03-02T05:55:17;9.73;;;1.50;;
56860;SDS011;42744;51.094;3.490;2024-03-02T05:57:43;9.27;;;1.40;;
56860;SDS011;42744;51.094;3.490;2024-03-02T06:00:09;4.60;;;1.23;;
56860;SDS011;42744;51.094;3.490;2024-03-02T06:02:41;5.60;;;1.37;;
56860;SDS011;42744;51.094;3.490;2024-03-02T06:05:07;6.83;;;1.20;;
56860;SDS011;42744;51.094;3.490;2024-03-02T06:07:33;2.63;;;1.50;;
56860;SDS011;42744;51.094;3.490;2024-03-02T06:09:59;5.23;;;1.23;;
56860;SDS011;42744;51.094;3.490;2024-03-02T06:12:25;7.70;;;1.77;;
56860;SDS011;42744;51.094;3.490;2024-03-02T06:14:50;7.30;;;1.57;;
56860;SDS011;42744;51.094;3.490;2024-03-02T06:17:16;4.73;;;1.37;;
56860;SDS011;42744;51.094;3.490;2024-03-02T06:19:42;2.93;;;1.60;;
56860;SDS011;42744;51.094;3.490;2024-03-02T06:22:08;4.93;;;1.43;;
56860;SDS011;42744;51.094;3.490;2024-03-02T06:24:35;5.37;;;1.60;;
56860;SDS011;42744;51.094;3.490;2024-03-02T06:27:03;4.27;;;1.10;;
56860;SDS011;42744;51.094;3.490;2024-03-02T06:29:32;4.57;;;1.00;;
56860;SDS011;42744;51.094;3.490;2024-03-02T06:31:58;4.70;;;1.17;;
56860;SDS011;42744;51.094;3.490;2024-03-02T06:34:25;5.30;;;1.30;;
56860;SDS011;42744;51.094;3.490;2024-03-02T06:36:51;6.27;;;1.20;;
56860;SDS011;42744;51.094;3.490;2024-03-02T06:39:17;3.47;;;1.00;;
56860;SDS011;42744;51.094;3.490;2024-03-02T06:41:43;4.63;;;1.10;;
56860;SDS011;42744;51.094;3.490;2024-03-02T06:44:09;5.07;;;1.10;;
56860;SDS011;42744;51.094;3.490;2024-03-02T06:46:35;4.57;;;1.40;;
56860;SDS011;42744;51.094;3.490;2024-03-02T06:49:01;6.13;;;1.20;;
56860;SDS011;42744;51.094;3.490;2024-03-02T06:51:29;5.57;;;1.20;;
56860;SDS011;42744;51.094;3.490;2024-03-02T06:53:55;5.93;;;1.23;;
56860;SDS011;42744;51.094;3.490;2024-03-02T06:56:21;4.73;;;1.30;;
56860;SDS011;42744;51.094;3.490;2024-03-02T06:58:47;5.10;;;1.40;;
56860;SDS011;42744;51.094;3.490;2024-03-02T07:01:13;8.30;;;1.27;;
56860;SDS011;42744;51.094;3.490;2024-03-02T07:03:39;6.73;;;1.30;;
56860;SDS011;42744;51.094;3.490;2024-03-02T07:06:05;5.77;;;1.23;;
56860;SDS011;42744;51.094;3.490;2024-03-02T07:08:31;5.47;;;1.40;;
56860;SDS011;42744;51.094;3.490;2024-03-02T07:10:57;5.77;;;1.20;;
56860;SDS011;42744;51.094;3.490;2024-03-02T07:13:23;8.90;;;1.30;;
56860;SDS011;42744;51.094;3.490;2024-03-02T07:15:49;6.40;;;1.10;;
56860;SDS011;42744;51.094;3.490;2024-03-02T07:18:33;6.37;;;1.37;;
56860;SDS011;42744;51.094;3.490;2024-03-02T07:21:04;4.87;;;1.00;;
56860;SDS011;42744;51.094;3.490;2024-03-02T07:23:31;6.17;;;1.23;;
56860;SDS011;42744;51.094;3.490;2024-03-02T07:25:57;4.57;;;0.87;;
56860;SDS011;42744;51.094;3.490;2024-03-02T07:28:27;9.07;;;1.37;;
56860;SDS011;42744;51.094;3.490;2024-03-02T07:31:00;6.23;;;0.90;;
56860;SDS011;42744;51.094;3.490;2024-03-02T07:33:27;5.87;;;1.20;;
56860;SDS011;42744;51.094;3.490;2024-03-02T07:35:56;4.33;;;1.27;;
56860;SDS011;42744;51.094;3.490;2024-03-02T07:38:23;5.07;;;1.20;;
56860;SDS011;42744;51.094;3.490;2024-03-02T07:40:49;11.10;;;1.83;;
56860;SDS011;42744;51.094;3.490;2024-03-02T07:43:19;6.73;;;1.50;;
56860;SDS011;42744;51.094;3.490;2024-03-02T07:45:45;7.70;;;1.30;;
56860;SDS011;42744;51.094;3.490;2024-03-02T07:48:12;6.67;;;1.40;;
56860;SDS011;42744;51.094;3.490;2024-03-02T07:50:38;5.47;;;1.33;;
56860;SDS011;42744;51.094;3.490;2024-03-02T07:53:04;3.77;;;1.30;;
56860;SDS011;42744;51.094;3.490;2024-03-02T07:55:31;7.93;;;1.40;;
56860;SDS011;42744;51.094;3.490;2024-03-02T07:57:57;4.30;;;1.10;;
56860;SDS011;42744;51.094;3.490;2024-03-02T08:00:23;6.97;;;2.00;;
56860;SDS011;42744;51.094;3.490;2024-03-02T08:02:51;8.33;;;1.70;;
56860;SDS011;42744;51.094;3.490;2024-03-02T08:05:18;11.57;;;1.63;;
56860;SDS011;42744;51.094;3.490;2024-03-02T08:07:47;7.40;;;1.57;;
56860;SDS011;42744;51.094;3.490;2024-03-02T08:10:13;10.93;;;2.50;;
56860;SDS011;42744;51.094;3.490;2024-03-02T08:12:39;9.93;;;1.27;;
56860;SDS011;42744;51.094;3.490;2024-03-02T08:15:05;6.43;;;1.50;;
56860;SDS011;42744;51.094;3.490;2024-03-02T08:17:32;4.57;;;1.10;;
56860;SDS011;42744;51.094;3.490;2024-03-02T08:19:58;7.80;;;0.97;;
56860;SDS011;42744;51.094;3.490;2024-03-02T08:22:24;6.40;;;1.37;;
56860;SDS011;42744;51.094;3.490;2024-03-02T08:24:53;6.13;;;1.57;;
56860;SDS011;42744;51.094;3.490;2024-03-02T08:27:20;11.93;;;1.20;;
56860;SDS011;42744;51.094;3.490;2024-03-02T08:29:45;7.00;;;1.63;;
56860;SDS011;42744;51.094;3.490;2024-03-02T08:32:12;4.03;;;1.20;;
56860;SDS011;42744;51.094;3.490;2024-03-02T08:34:38;7.23;;;0.80;;
56860;SDS011;42744;51.094;3.490;2024-03-02T08:37:04;7.77;;;1.40;;
56860;SDS011;42744;51.094;3.490;2024-03-02T08:39:30;5.13;;;1.27;;
56860;SDS011;42744;51.094;3.490;2024-03-02T08:41:56;9.23;;;1.20;;
56860;SDS011;42744;51.094;3.490;2024-03-02T08:44:22;7.47;;;1.40;;
56860;SDS011;42744;51.094;3.490;2024-03-02T08:46:48;7.03;;;1.67;;
56860;SDS011;42744;51.094;3.490;2024-03-02T08:49:14;7.83;;;1.47;;
56860;SDS011;42744;51.094;3.490;2024-03-02T08:51:40;10.20;;;1.40;;
56860;SDS011;42744;51.094;3.490;2024-03-02T08:54:06;9.80;;;1.50;;
56860;SDS011;42744;51.094;3.490;2024-03-02T08:56:35;6.53;;;1.07;;
56860;SDS011;42744;51.094;3.490;2024-03-02T08:59:01;11.43;;;1.90;;
56860;SDS011;42744;51.094;3.490;2024-03-02T09:01:30;8.07;;;1.60;;
56860;SDS011;42744;51.094;3.490;2024-03-02T09:03:56;7.80;;;1.33;;
56860;SDS011;42744;51.094;3.490;2024-03-02T09:06:22;8.60;;;3.10;;
56860;SDS011;42744;51.094;3.490;2024-03-02T09:08:48;6.57;;;2.80;;
56860;SDS011;42744;51.094;3.490;2024-03-02T09:11:17;11.03;;;2.23;;
56860;SDS011;42744;51.094;3.490;2024-03-02T09:13:43;5.67;;;1.83;;
56860;SDS011;42744;51.094;3.490;2024-03-02T09:16:09;8.83;;;2.00;;
56860;SDS011;42744;51.094;3.490;2024-03-02T09:18:36;9.43;;;1.80;;
56860;SDS011;42744;51.094;3.490;2024-03-02T09:21:03;9.23;;;1.77;;
56860;SDS011;42744;51.094;3.490;2024-03-02T09:23:30;6.10;;;1.40;;
56860;SDS011;42744;51.094;3.490;2024-03-02T09:25:55;6.90;;;1.97;;
56860;SDS011;42744;51.094;3.490;2024-03-02T09:28:21;9.33;;;2.10;;
56860;SDS011;42744;51.094;3.490;2024-03-02T09:30:48;10.43;;;1.80;;
56860;SDS011;42744;51.094;3.490;2024-03-02T09:33:13;8.43;;;1.27;;
56860;SDS011;42744;51.094;3.490;2024-03-02T09:35:39;7.57;;;1.40;;
56860;SDS011;42744;51.094;3.490;2024-03-02T09:38:05;9.00;;;1.40;;
56860;SDS011;42744;51.094;3.490;2024-03-02T09:40:31;8.67;;;1.77;;
56860;SDS011;42744;51.094;3.490;2024-03-02T09:42:58;8.10;;;1.83;;
56860;SDS011;42744;51.094;3.490;2024-03-02T09:45:24;7.83;;;1.70;;
56860;SDS011;42744;51.094;3.490;2024-03-02T09:47:52;10.27;;;1.80;;
56860;SDS011;42744;51.094;3.490;2024-03-02T09:50:18;14.20;;;3.70;;
56860;SDS011;42744;51.094;3.490;2024-03-02T09:52:44;9.53;;;2.77;;
56860;SDS011;42744;51.094;3.490;2024-03-02T09:55:14;17.83;;;3.80;;
56860;SDS011;42744;51.094;3.490;2024-03-02T09:57:42;13.43;;;2.57;;
56860;SDS011;42744;51.094;3.490;2024-03-02T10:00:08;9.33;;;3.10;;
56860;SDS011;42744;51.094;3.490;2024-03-02T10:02:43;6.43;;;1.57;;
56860;SDS011;42744;51.094;3.490;2024-03-02T10:05:09;32.37;;;3.90;;
56860;SDS011;42744;51.094;3.490;2024-03-02T10:07:35;8.10;;;3.20;;
56860;SDS011;42744;51.094;3.490;2024-03-02T10:10:14;11.13;;;3.77;;
56860;SDS011;42744;51.094;3.490;2024-03-02T10:12:41;41.93;;;27.13;;
56860;SDS011;42744;51.094;3.490;2024-03-02T10:15:07;64.47;;;36.57;;
56860;SDS011;42744;51.094;3.490;2024-03-02T10:17:35;33.80;;;16.87;;
56860;SDS011;42744;51.094;3.490;2024-03-02T10:20:20;15.60;;;6.43;;
56860;SDS011;42744;51.094;3.490;2024-03-02T10:23:11;8.47;;;2.70;;
56860;SDS011;42744;51.094;3.490;2024-03-02T10:25:37;12.87;;;3.10;;
56860;SDS011;42744;51.094;3.490;2024-03-02T10:28:04;9.53;;;3.23;;
56860;SDS011;42744;51.094;3.490;2024-03-02T10:30:31;12.00;;;2.43;;
56860;SDS011;42744;51.094;3.490;2024-03-02T10:32:58;8.57;;;2.30;;
56860;SDS011;42744;51.094;3.490;2024-03-02T10:35:25;7.97;;;1.70;;
56860;SDS011;42744;51.094;3.490;2024-03-02T10:37:52;4.97;;;1.50;;
56860;SDS011;42744;51.094;3.490;2024-03-02T10:40:21;11.07;;;1.73;;
56860;SDS011;42744;51.094;3.490;2024-03-02T10:42:47;6.80;;;1.63;;
56860;SDS011;42744;51.094;3.490;2024-03-02T10:45:15;4.97;;;1.40;;
56860;SDS011;42744;51.094;3.490;2024-03-02T10:47:44;4.67;;;1.10;;
56860;SDS011;42744;51.094;3.490;2024-03-02T10:50:12;7.37;;;1.80;;
56860;SDS011;42744;51.094;3.490;2024-03-02T10:52:38;7.80;;;1.20;;
56860;SDS011;42744;51.094;3.490;2024-03-02T10:55:05;9.77;;;1.20;;
56860;SDS011;42744;51.094;3.490;2024-03-02T10:57:33;9.30;;;1.37;;
56860;SDS011;42744;51.094;3.490;2024-03-02T11:00:15;8.13;;;1.50;;
56860;SDS011;42744;51.094;3.490;2024-03-02T11:02:51;9.03;;;1.80;;
56860;SDS011;42744;51.094;3.490;2024-03-02T11:05:27;10.90;;;1.83;;
56860;SDS011;42744;51.094;3.490;2024-03-02T11:08:02;8.40;;;1.30;;
56860;SDS011;42744;51.094;3.490;2024-03-02T11:10:37;10.03;;;1.60;;
56860;SDS011;42744;51.094;3.490;2024-03-02T11:13:11;8.70;;;1.40;;
56860;SDS011;42744;51.094;3.490;2024-03-02T11:15:38;7.63;;;1.50;;
56860;SDS011;42744;51.094;3.490;2024-03-02T11:18:08;7.77;;;1.43;;
56860;SDS011;42744;51.094;3.490;2024-03-02T11:20:39;6.37;;;1.30;;
56860;SDS011;42744;51.094;3.490;2024-03-02T11:23:06;7.63;;;2.10;;
56860;SDS011;42744;51.094;3.490;2024-03-02T11:25:35;6.73;;;1.63;;
56860;SDS011;42744;51.094;3.490;2024-03-02T11:28:03;8.17;;;1.37;;
56860;SDS011;42744;51.094;3.490;2024-03-02T11:33:06;4.03;;;0.93;;
56860;SDS011;42744;51.094;3.490;2024-03-02T11:35:36;7.33;;;1.20;;
56860;SDS011;42744;51.094;3.490;2024-03-02T11:38:03;9.23;;;1.50;;
56860;SDS011;42744;51.094;3.490;2024-03-02T11:40:29;5.50;;;1.40;;
56860;SDS011;42744;51.094;3.490;2024-03-02T11:42:59;6.73;;;2.10;;
56860;SDS011;42744;51.094;3.490;2024-03-02T11:45:25;13.27;;;3.43;;
56860;SDS011;42744;51.094;3.490;2024-03-02T11:47:56;13.57;;;4.27;;
56860;SDS011;42744;51.094;3.490;2024-03-02T11:50:57;6.47;;;2.60;;
56860;SDS011;42744;51.094;3.490;2024-03-02T11:53:15;8.97;;;3.00;;
56860;SDS011;42744;51.094;3.490;2024-03-02T11:55:42;6.60;;;2.20;;
56860;SDS011;42744;51.094;3.490;2024-03-02T11:58:11;6.93;;;1.50;;
56860;SDS011;42744;51.094;3.490;2024-03-02T12:00:38;9.80;;;2.33;;
56860;SDS011;42744;51.094;3.490;2024-03-02T12:03:05;8.03;;;1.80;;
56860;SDS011;42744;51.094;3.490;2024-03-02T12:05:33;7.80;;;1.47;;
56860;SDS011;42744;51.094;3.490;2024-03-02T12:08:00;8.27;;;2.40;;
56860;SDS011;42744;51.094;3.490;2024-03-02T12:10:28;7.97;;;3.00;;
56860;SDS011;42744;51.094;3.490;2024-03-02T12:13:01;6.63;;;1.80;;
56860;SDS011;42744;51.094;3.490;2024-03-02T12:15:33;10.40;;;2.30;;
56860;SDS011;42744;51.094;3.490;2024-03-02T12:18:02;10.00;;;2.37;;
56860;SDS011;42744;51.094;3.490;2024-03-02T12:20:29;9.23;;;1.97;;
56860;SDS011;42744;51.094;3.490;2024-03-02T12:23:04;6.20;;;1.40;;
56860;SDS011;42744;51.094;3.490;2024-03-02T12:25:30;7.30;;;2.00;;
56860;SDS011;42744;51.094;3.490;2024-03-02T12:27:59;4.20;;;1.10;;
56860;SDS011;42744;51.094;3.490;2024-03-02T12:30:29;4.87;;;1.20;;
56860;SDS011;42744;51.094;3.490;2024-03-02T12:32:57;6.47;;;1.50;;
56860;SDS011;42744;51.094;3.490;2024-03-02T12:35:24;6.47;;;1.57;;
56860;SDS011;42744;51.094;3.490;2024-03-02T12:37:52;11.77;;;1.70;;
56860;SDS011;42744;51.094;3.490;2024-03-02T12:40:19;8.53;;;2.20;;
56860;SDS011;42744;51.094;3.490;2024-03-02T12:42:47;5.80;;;1.70;;
56860;SDS011;42744;51.094;3.490;2024-03-02T12:45:14;4.97;;;1.57;;
56860;SDS011;42744;51.094;3.490;2024-03-02T12:47:41;6.53;;;1.67;;
56860;SDS011;42744;51.094;3.490;2024-03-02T12:50:08;5.30;;;1.83;;
56860;SDS011;42744;51.094;3.490;2024-03-02T12:52:34;6.10;;;1.50;;
56860;SDS011;42744;51.094;3.490;2024-03-02T12:55:02;8.77;;;1.60;;
56860;SDS011;42744;51.094;3.490;2024-03-02T12:57:31;9.10;;;1.60;;
56860;SDS011;42744;51.094;3.490;2024-03-02T13:00:05;10.20;;;1.80;;
56860;SDS011;42744;51.094;3.490;2024-03-02T13:02:41;8.23;;;1.63;;
56860;SDS011;42744;51.094;3.490;2024-03-02T13:05:08;10.37;;;2.67;;
56860;SDS011;42744;51.094;3.490;2024-03-02T13:07:40;5.33;;;1.60;;
56860;SDS011;42744;51.094;3.490;2024-03-02T13:10:10;8.10;;;2.00;;
56860;SDS011;42744;51.094;3.490;2024-03-02T13:12:37;5.73;;;2.00;;
56860;SDS011;42744;51.094;3.490;2024-03-02T13:15:03;7.20;;;2.33;;
56860;SDS011;42744;51.094;3.490;2024-03-02T13:17:30;7.40;;;2.20;;
56860;SDS011;42744;51.094;3.490;2024-03-02T13:19:58;12.53;;;3.23;;
56860;SDS011;42744;51.094;3.490;2024-03-02T13:22:25;16.70;;;5.63;;
56860;SDS011;42744;51.094;3.490;2024-03-02T13:24:51;28.17;;;8.07;;
56860;SDS011;42744;51.094;3.490;2024-03-02T13:27:20;8.47;;;2.87;;
56860;SDS011;42744;51.094;3.490;2024-03-02T13:29:49;5.53;;;1.47;;
56860;SDS011;42744;51.094;3.490;2024-03-02T13:32:15;9.47;;;1.90;;
56860;SDS011;42744;51.094;3.490;2024-03-02T13:34:42;6.70;;;1.20;;
56860;SDS011;42744;51.094;3.490;2024-03-02T13:37:08;4.10;;;0.97;;
56860;SDS011;42744;51.094;3.490;2024-03-02T13:39:35;5.73;;;1.80;;
56860;SDS011;42744;51.094;3.490;2024-03-02T13:42:09;4.03;;;1.87;;
56860;SDS011;42744;51.094;3.490;2024-03-02T13:44:37;7.57;;;2.20;;
56860;SDS011;42744;51.094;3.490;2024-03-02T13:47:03;5.47;;;1.73;;
56860;SDS011;42744;51.094;3.490;2024-03-02T13:49:30;7.07;;;2.40;;
56860;SDS011;42744;51.094;3.490;2024-03-02T13:52:04;8.27;;;3.03;;
56860;SDS011;42744;51.094;3.490;2024-03-02T13:54:43;9.90;;;2.40;;
56860;SDS011;42744;51.094;3.490;2024-03-02T13:57:11;8.43;;;2.40;;
56860;SDS011;42744;51.094;3.490;2024-03-02T13:59:37;11.57;;;3.83;;
56860;SDS011;42744;51.094;3.490;2024-03-02T14:02:04;12.90;;;3.97;;
56860;SDS011;42744;51.094;3.490;2024-03-02T14:04:32;9.57;;;3.77;;
56860;SDS011;42744;51.094;3.490;2024-03-02T14:06:59;15.87;;;6.30;;
56860;SDS011;42744;51.094;3.490;2024-03-02T14:09:25;15.70;;;5.70;;
56860;SDS011;42744;51.094;3.490;2024-03-02T14:11:52;11.27;;;4.00;;
56860;SDS011;42744;51.094;3.490;2024-03-02T14:14:19;6.83;;;3.17;;
56860;SDS011;42744;51.094;3.490;2024-03-02T14:16:45;5.57;;;2.07;;
56860;SDS011;42744;51.094;3.490;2024-03-02T14:19:11;5.20;;;2.30;;
56860;SDS011;42744;51.094;3.490;2024-03-02T14:21:40;7.97;;;2.30;;
56860;SDS011;42744;51.094;3.490;2024-03-02T14:24:06;4.53;;;1.80;;
56860;SDS011;42744;51.094;3.490;2024-03-02T14:26:33;6.67;;;1.87;;
56860;SDS011;42744;51.094;3.490;2024-03-02T14:28:59;4.40;;;1.60;;
56860;SDS011;42744;51.094;3.490;2024-03-02T14:31:27;8.10;;;2.43;;
56860;SDS011;42744;51.094;3.490;2024-03-02T14:33:54;3.93;;;1.30;;
56860;SDS011;42744;51.094;3.490;2024-03-02T14:36:20;4.90;;;1.30;;
56860;SDS011;42744;51.094;3.490;2024-03-02T14:38:46;4.47;;;1.37;;
56860;SDS011;42744;51.094;3.490;2024-03-02T14:41:13;3.87;;;1.37;;
56860;SDS011;42744;51.094;3.490;2024-03-02T14:43:39;10.73;;;1.50;;
56860;SDS011;42744;51.094;3.490;2024-03-02T14:46:06;5.20;;;1.47;;
56860;SDS011;42744;51.094;3.490;2024-03-02T14:48:35;4.90;;;1.70;;
56860;SDS011;42744;51.094;3.490;2024-03-02T14:51:02;4.80;;;1.40;;
56860;SDS011;42744;51.094;3.490;2024-03-02T14:53:28;5.90;;;1.70;;
56860;SDS011;42744;51.094;3.490;2024-03-02T14:55:54;4.20;;;1.47;;
56860;SDS011;42744;51.094;3.490;2024-03-02T14:58:20;6.67;;;1.73;;
56860;SDS011;42744;51.094;3.490;2024-03-02T15:00:46;3.87;;;1.57;;
56860;SDS011;42744;51.094;3.490;2024-03-02T15:03:13;6.27;;;1.60;;